createdAt,value
2019-01-15T00:04:17.484Z,70.62
2019-01-15T00:09:19.940Z,70.73
2019-01-15T00:14:22.409Z,70.93
2019-01-15T00:19:24.869Z,70.98
2019-01-15T00:24:27.297Z,71.01
2019-01-15T00:29:29.737Z,70.94
2019-01-15T00:34:32.228Z,70.83
2019-01-15T00:39:34.678Z,70.60
2019-01-15T00:44:37.145Z,70.60
2019-01-15T00:49:39.597Z,70.67
2019-01-15T00:54:42.051Z,70.64
2019-01-15T00:59:44.494Z,70.69
2019-01-15T01:04:46.975Z,70.58
2019-01-15T01:09:49.418Z,70.43
2019-01-15T01:14:51.965Z,70.25
2019-01-15T01:19:54.444Z,70.22
2019-01-15T01:24:56.886Z,70.41
2019-01-15T01:29:59.353Z,70.25
2019-01-15T01:35:01.829Z,70.16
2019-01-15T01:40:04.291Z,70.03
2019-01-15T01:45:06.742Z,69.86
2019-01-15T01:50:09.191Z,69.93
2019-01-15T01:55:11.640Z,70.06
2019-01-15T02:00:17.043Z,70.20
2019-01-15T02:05:19.519Z,70.29
2019-01-15T02:10:22.003Z,70.51
2019-01-15T02:15:24.476Z,70.82
2019-01-15T02:20:26.930Z,70.34
2019-01-15T02:25:29.380Z,70.29
2019-01-15T02:30:31.820Z,70.26
2019-01-15T02:35:34.290Z,70.21
2019-01-15T02:40:36.739Z,70.33
2019-01-15T02:45:39.179Z,70.35
2019-01-15T02:50:41.791Z,70.33
2019-01-15T02:55:44.239Z,70.57
2019-01-15T03:00:46.701Z,70.68
2019-01-15T03:05:49.151Z,70.40
2019-01-15T03:10:51.596Z,70.29
2019-01-15T03:15:54.047Z,70.28
2019-01-15T03:20:56.496Z,70.15
2019-01-15T03:25:58.937Z,70.16
2019-01-15T03:31:01.402Z,70.28
2019-01-15T03:36:03.871Z,70.60
2019-01-15T03:41:06.307Z,71.04
2019-01-15T03:46:08.760Z,71.10
2019-01-15T03:51:11.204Z,71.06
2019-01-15T03:56:13.655Z,71.09
2019-01-15T04:01:16.153Z,71.15
2019-01-15T04:06:18.601Z,71.25
2019-01-15T04:11:21.049Z,71.27
2019-01-15T04:16:23.506Z,71.20
2019-01-15T04:21:25.998Z,71.48
2019-01-15T04:26:28.426Z,71.49
2019-01-15T04:31:30.892Z,71.65
2019-01-15T04:36:33.353Z,71.57
2019-01-15T04:41:35.812Z,71.72
2019-01-15T04:46:38.339Z,71.64
2019-01-15T04:51:40.699Z,71.61
2019-01-15T04:56:43.163Z,72.01
2019-01-15T05:01:45.590Z,71.84
2019-01-15T05:06:48.043Z,72.02
2019-01-15T05:11:50.491Z,71.79
2019-01-15T05:16:52.947Z,71.66
2019-01-15T05:21:55.399Z,71.72
2019-01-15T05:26:57.853Z,71.75
2019-01-15T05:32:00.370Z,71.99
2019-01-15T05:37:02.814Z,71.99
2019-01-15T05:42:05.253Z,72.09
2019-01-15T05:47:07.710Z,72.19
2019-01-15T05:52:10.191Z,72.18
2019-01-15T05:57:12.651Z,72.25
2019-01-15T06:02:15.102Z,72.25
2019-01-15T06:07:17.542Z,72.44
2019-01-15T06:12:20.001Z,72.48
2019-01-15T06:17:22.462Z,72.55
2019-01-15T06:27:51.114Z,72.77
2019-01-15T06:32:53.569Z,73.02
2019-01-15T06:37:56.025Z,73.04
2019-01-15T06:42:58.494Z,72.98
2019-01-15T06:48:00.947Z,72.96
2019-01-15T06:53:03.395Z,72.95
2019-01-15T06:58:05.845Z,72.81
2019-01-15T07:03:08.313Z,73.14
2019-01-15T07:08:10.774Z,72.81
2019-01-15T07:13:13.221Z,72.99
2019-01-15T07:18:15.710Z,73.10
2019-01-15T07:23:18.197Z,73.33
2019-01-15T07:28:20.688Z,73.32
2019-01-15T07:33:23.153Z,73.20
2019-01-15T07:38:25.606Z,73.38
2019-01-15T07:43:28.055Z,73.24
2019-01-15T07:48:30.521Z,73.29
2019-01-15T07:53:32.945Z,73.33
2019-01-15T07:58:35.394Z,73.41
2019-01-15T08:03:37.838Z,72.86
2019-01-15T08:08:40.303Z,72.83
2019-01-15T08:13:42.749Z,72.69
2019-01-15T08:18:45.210Z,72.72
2019-01-15T08:23:47.777Z,72.74
2019-01-15T08:28:50.231Z,72.44
2019-01-15T08:33:52.780Z,72.34
2019-01-15T08:38:55.234Z,72.21
2019-01-15T08:43:57.699Z,71.96
2019-01-15T08:49:00.165Z,71.13
2019-01-15T08:54:02.662Z,70.68
2019-01-15T08:59:05.144Z,70.36
2019-01-15T09:04:07.600Z,69.62
2019-01-15T09:09:10.068Z,68.86
2019-01-15T09:14:12.521Z,67.74
2019-01-15T09:19:14.969Z,64.79
2019-01-15T09:24:17.610Z,66.92
2019-01-15T09:29:20.071Z,65.84
2019-01-15T09:34:22.528Z,65.79
2019-01-15T09:39:25.010Z,66.66
2019-01-15T09:44:33.836Z,65.26
2019-01-15T09:49:29.962Z,63.78
2019-01-15T09:54:32.427Z,62.94
2019-01-15T09:59:34.865Z,63.44
2019-01-15T10:04:37.320Z,63.88
2019-01-15T10:09:39.793Z,64.54
2019-01-15T10:14:42.260Z,65.09
2019-01-15T10:19:45.282Z,65.06
2019-01-15T10:24:47.227Z,65.81
2019-01-15T10:29:49.682Z,65.77
2019-01-15T10:34:52.211Z,65.76
2019-01-15T10:39:54.608Z,66.37
2019-01-15T10:44:57.065Z,66.18
2019-01-15T10:49:59.526Z,65.88
2019-01-15T10:55:01.992Z,66.00
2019-01-15T11:00:04.447Z,66.41
2019-01-15T11:05:06.914Z,66.43
2019-01-15T11:10:09.376Z,66.37
2019-01-15T11:15:11.835Z,66.32
2019-01-15T11:20:14.289Z,66.72
2019-01-15T11:25:16.741Z,66.68
2019-01-15T11:30:19.199Z,66.58
2019-01-15T11:35:21.660Z,66.45
2019-01-15T11:40:24.219Z,66.27
2019-01-15T11:45:26.690Z,66.33
2019-01-15T11:50:29.149Z,66.05
2019-01-15T11:55:31.632Z,66.23
2019-01-15T12:00:34.092Z,66.18
2019-01-15T12:05:48.794Z,65.89
2019-01-15T12:11:09.531Z,66.09
2019-01-15T12:16:14.856Z,66.35
2019-01-15T12:21:17.308Z,66.07
2019-01-15T12:26:19.766Z,66.28
2019-01-15T12:31:31.298Z,66.59
2019-01-15T12:36:42.571Z,66.65
2019-01-15T12:41:47.535Z,66.96
2019-01-15T12:46:52.976Z,67.01
2019-01-15T12:51:58.370Z,66.20
2019-01-15T12:57:19.287Z,66.65
2019-01-15T13:02:18.486Z,67.08
2019-01-15T13:07:35.996Z,66.77
2019-01-15T13:12:56.729Z,66.93
2019-01-15T13:18:17.384Z,67.13
2019-01-15T13:23:22.878Z,67.30
2019-01-15T13:28:31.348Z,67.71
2019-01-15T13:33:37.052Z,67.93
2019-01-15T13:38:39.222Z,68.12
2019-01-15T13:44:00.059Z,68.18
2019-01-15T13:49:08.701Z,68.38
2019-01-15T13:54:26.380Z,68.54
2019-01-15T13:59:28.837Z,68.74
2019-01-15T14:04:31.316Z,68.98
2019-01-15T14:09:33.897Z,68.88
2019-01-15T14:14:39.336Z,68.92
2019-01-15T14:19:59.692Z,69.12
2019-01-15T14:25:02.171Z,69.37
2019-01-15T14:30:04.653Z,69.56
2019-01-15T14:35:25.259Z,69.75
2019-01-15T14:40:42.695Z,69.95
2019-01-15T14:45:56.522Z,70.14
2019-01-15T14:50:53.421Z,70.34
2019-01-15T14:55:58.818Z,70.32
2019-01-15T15:01:01.285Z,70.40
2019-01-15T15:06:06.665Z,70.74
2019-01-15T15:11:09.118Z,71.13
2019-01-15T15:16:17.389Z,71.21
2019-01-15T15:21:21.540Z,71.50
2019-01-15T15:26:31.481Z,71.51
2019-01-15T15:31:52.229Z,71.63
2019-01-15T15:37:00.961Z,71.72
2019-01-15T15:42:06.186Z,71.82
2019-01-15T15:47:11.551Z,71.93
2019-01-15T15:52:32.417Z,72.23
2019-01-15T15:57:53.150Z,72.34
2019-01-15T16:03:01.804Z,72.35
2019-01-15T16:08:19.425Z,72.51
2019-01-15T16:13:30.951Z,72.49
2019-01-15T16:18:42.643Z,72.40
2019-01-15T16:23:54.351Z,72.68
2019-01-15T16:29:15.193Z,72.44
2019-01-15T16:34:26.488Z,72.50
2019-01-15T16:39:41.236Z,72.32
2019-01-15T16:44:43.720Z,72.13
2019-01-15T16:49:52.398Z,72.00
2019-01-15T16:54:54.883Z,71.87
2019-01-15T17:00:06.664Z,71.70
2019-01-15T17:05:21.218Z,71.64
2019-01-15T17:10:32.503Z,71.46
2019-01-15T17:15:40.787Z,71.39
2019-01-15T17:21:01.369Z,71.35
2019-01-15T17:26:12.817Z,71.19
2019-01-15T17:31:15.303Z,71.23
2019-01-15T17:36:23.730Z,71.53
2019-01-15T17:41:44.517Z,71.55
2019-01-15T17:46:46.984Z,71.45
2019-01-15T17:51:55.244Z,71.40
2019-01-15T17:57:03.762Z,71.16
2019-01-15T18:02:21.528Z,71.08
2019-01-15T18:07:36.214Z,71.07
2019-01-15T18:12:50.472Z,71.08
2019-01-15T18:17:52.956Z,71.30
2019-01-15T18:23:04.376Z,71.24
2019-01-15T18:28:12.823Z,71.42
2019-01-15T18:33:30.285Z,71.50
2019-01-15T18:38:47.659Z,71.50
2019-01-15T18:43:59.373Z,71.52
2019-01-15T18:49:20.043Z,71.61
2019-01-15T18:54:40.510Z,71.62
2019-01-15T18:59:49.110Z,71.39
2019-01-15T19:05:06.778Z,71.32
2019-01-15T19:10:18.598Z,71.34
2019-01-15T19:15:30.384Z,71.20
2019-01-15T19:20:50.990Z,71.19
2019-01-15T19:25:56.400Z,70.91
2019-01-15T19:31:08.194Z,71.09
2019-01-15T19:36:10.726Z,70.97
2019-01-15T19:41:15.686Z,71.04
2019-01-15T19:46:33.422Z,70.93
2019-01-15T19:51:54.295Z,70.91
2019-01-15T19:57:02.385Z,70.84
2019-01-15T20:02:23.074Z,70.65
2019-01-15T20:07:43.579Z,70.78
2019-01-15T20:12:58.137Z,70.66
2019-01-15T20:18:09.613Z,70.94
2019-01-15T20:23:12.091Z,70.87
2019-01-15T20:28:26.572Z,70.97
2019-01-15T20:33:35.235Z,70.90
2019-01-15T20:38:43.468Z,71.16
2019-01-15T20:43:45.918Z,71.08
2019-01-15T20:48:51.354Z,71.30
2019-01-15T20:53:59.813Z,71.11
2019-01-15T20:59:11.195Z,71.10
2019-01-15T21:04:13.728Z,71.06
2019-01-15T21:09:34.354Z,71.05
2019-01-15T21:14:42.957Z,71.19
2019-01-15T21:19:51.373Z,71.17
2019-01-15T21:24:53.900Z,71.45
2019-01-15T21:30:02.300Z,71.44
2019-01-15T21:35:22.792Z,71.53
2019-01-15T21:40:25.271Z,71.49
2019-01-15T21:45:27.724Z,71.68
2019-01-15T21:50:48.162Z,71.34
2019-01-15T21:55:53.284Z,71.48
2019-01-15T22:01:13.823Z,71.55
2019-01-15T22:06:18.826Z,71.46
2019-01-15T22:11:24.046Z,71.46
2019-01-15T22:16:29.449Z,71.38
2019-01-15T22:21:31.915Z,71.50
2019-01-15T22:26:34.389Z,71.23
2019-01-15T22:31:39.679Z,71.25
2019-01-15T22:36:45.069Z,71.06
2019-01-15T22:41:56.196Z,70.97
2019-01-15T22:47:07.835Z,70.64
2019-01-15T22:52:16.234Z,70.76
2019-01-15T22:57:21.616Z,70.52
2019-01-15T23:02:30.313Z,70.70
2019-01-15T23:07:50.825Z,70.57
2019-01-15T23:12:59.310Z,70.27
2019-01-15T23:18:20.191Z,70.51
2019-01-15T23:23:28.210Z,70.33
2019-01-15T23:28:45.748Z,70.57
2019-01-15T23:34:00.226Z,71.05
2019-01-15T23:39:08.634Z,70.96
2019-01-15T23:44:11.094Z,71.13
2019-01-15T23:49:16.420Z,71.11
2019-01-15T23:54:21.834Z,70.98
2019-01-15T23:59:33.256Z,70.57
